createdAt,value
2018-01-12T00:01:47.682Z,16.57
2018-01-12T00:04:15.339Z,18.30
2018-01-12T00:06:43.502Z,20.43
2018-01-12T00:09:11.201Z,17.33
2018-01-12T00:11:38.861Z,19.83
2018-01-12T00:14:06.541Z,21.57
2018-01-12T00:16:34.250Z,18.93
2018-01-12T00:19:01.910Z,16.70
2018-01-12T00:21:29.555Z,20.60
2018-01-12T00:23:58.066Z,18.60
2018-01-12T00:26:25.709Z,16.97
2018-01-12T00:28:53.368Z,20.20
2018-01-12T00:31:21.541Z,18.57
2018-01-12T00:33:49.194Z,20.07
2018-01-12T00:36:16.835Z,20.53
2018-01-12T00:38:44.794Z,17.43
2018-01-12T00:41:12.438Z,21.17
2018-01-12T00:43:40.086Z,19.73
2018-01-12T00:46:07.790Z,23.13
2018-01-12T00:48:35.425Z,20.33
2018-01-12T00:53:44.023Z,21.90
2018-01-12T00:56:11.673Z,21.23
2018-01-12T00:58:39.322Z,22.97
2018-01-12T01:01:07.038Z,18.50
2018-01-12T01:03:34.665Z,22.73
2018-01-12T01:06:02.287Z,19.17
2018-01-12T01:08:30.021Z,21.07
2018-01-12T01:10:58.140Z,21.40
2018-01-12T01:13:25.796Z,25.63
2018-01-12T01:15:53.488Z,24.17
2018-01-12T01:18:21.157Z,27.20
2018-01-12T01:20:48.804Z,24.60
2018-01-12T01:23:16.577Z,27.07
2018-01-12T01:25:44.252Z,26.73
2018-01-12T01:28:11.907Z,23.10
2018-01-12T01:30:39.618Z,28.20
2018-01-12T01:33:07.275Z,27.53
2018-01-12T01:35:34.939Z,27.87
2018-01-12T01:38:02.672Z,26.50
2018-01-12T01:40:30.329Z,25.30
2018-01-12T01:42:57.954Z,31.87
2018-01-12T01:45:25.652Z,26.50
2018-01-12T01:47:53.322Z,27.03
2018-01-12T01:50:20.949Z,31.80
2018-01-12T01:52:48.704Z,29.30
2018-01-12T01:55:16.347Z,30.30
2018-01-12T01:57:44.800Z,27.67
2018-01-12T02:02:52.826Z,31.92
2018-01-12T02:05:20.571Z,30.47
2018-01-12T02:07:48.240Z,31.27
2018-01-12T02:10:16.335Z,32.30
2018-01-12T02:12:44.030Z,31.33
2018-01-12T02:15:11.676Z,29.40
2018-01-12T02:17:39.601Z,25.33
2018-01-12T02:20:07.305Z,32.17
2018-01-12T02:22:34.938Z,30.73
2018-01-12T02:25:02.592Z,41.97
2018-01-12T02:27:30.325Z,34.00
2018-01-12T02:29:57.968Z,36.60
2018-01-12T02:32:25.615Z,29.43
2018-01-12T02:34:53.329Z,35.00
2018-01-12T02:37:20.974Z,35.43
2018-01-12T02:39:48.611Z,33.97
2018-01-12T02:42:16.749Z,35.27
2018-01-12T02:44:47.191Z,35.47
2018-01-12T02:47:12.870Z,35.07
2018-01-12T02:49:40.565Z,35.00
2018-01-12T02:52:08.233Z,32.83
2018-01-12T02:54:37.385Z,36.53
2018-01-12T02:57:05.088Z,31.63
2018-01-12T02:59:32.729Z,35.87
2018-01-12T03:02:00.386Z,41.97
2018-01-12T03:04:28.144Z,37.10
2018-01-12T03:06:55.793Z,40.23
2018-01-12T03:09:23.433Z,35.03
2018-01-12T03:11:51.396Z,35.90
2018-01-12T03:14:19.070Z,34.63
2018-01-12T03:16:46.720Z,33.07
2018-01-12T03:19:14.435Z,37.77
2018-01-12T03:24:24.478Z,41.92
2018-01-12T03:26:52.173Z,35.27
2018-01-12T03:29:20.679Z,37.83
2018-01-12T03:31:48.405Z,37.43
2018-01-12T03:34:16.077Z,37.50
2018-01-12T03:36:45.789Z,40.37
2018-01-12T03:39:12.330Z,40.13
2018-01-12T03:41:40.003Z,40.27
2018-01-12T03:44:07.667Z,38.30
2018-01-12T03:46:35.408Z,40.63
2018-01-12T03:49:03.080Z,36.03
2018-01-12T03:51:31.308Z,35.23
2018-01-12T03:53:59.049Z,35.13
2018-01-12T03:56:27.638Z,44.90
2018-01-12T03:58:55.296Z,38.40
2018-01-12T04:01:23.023Z,37.57
2018-01-12T04:03:51.427Z,38.47
2018-01-12T04:06:19.083Z,38.87
2018-01-12T04:08:47.464Z,36.37
2018-01-12T04:11:15.135Z,39.43
2018-01-12T04:13:42.769Z,39.17
2018-01-12T04:16:10.496Z,41.87
2018-01-12T04:18:38.157Z,39.33
2018-01-12T04:21:05.793Z,39.97
2018-01-12T04:23:33.535Z,41.10
2018-01-12T04:26:01.182Z,43.93
2018-01-12T04:28:28.834Z,44.80
2018-01-12T04:30:56.548Z,45.00
2018-01-12T04:33:24.206Z,41.97
2018-01-12T04:35:53.363Z,39.67
2018-01-12T04:38:21.094Z,44.83
2018-01-12T04:43:34.401Z,44.63
2018-01-12T04:46:02.082Z,42.10
2018-01-12T04:48:29.727Z,40.43
2018-01-12T04:50:57.459Z,43.23
2018-01-12T04:53:25.112Z,45.33
2018-01-12T04:55:53.323Z,45.23
2018-01-12T04:58:21.075Z,42.83
2018-01-12T05:00:48.745Z,41.70
2018-01-12T05:03:16.419Z,43.83
2018-01-12T05:05:44.123Z,44.97
2018-01-12T05:08:11.794Z,57.60
2018-01-12T05:10:39.442Z,49.37
2018-01-12T05:13:07.182Z,44.17
2018-01-12T05:15:34.834Z,47.13
2018-01-12T05:18:03.397Z,46.77
2018-01-12T05:20:31.125Z,47.10
2018-01-12T05:22:58.752Z,44.53
2018-01-12T05:25:26.419Z,47.37
2018-01-12T05:27:54.145Z,47.20
2018-01-12T05:30:21.800Z,45.93
2018-01-12T05:32:49.480Z,45.67
2018-01-12T05:35:17.204Z,47.50
2018-01-12T05:37:45.444Z,45.97
2018-01-12T05:40:13.055Z,40.27
2018-01-12T05:42:41.184Z,46.43
2018-01-12T05:45:09.799Z,43.03
2018-01-12T05:47:37.975Z,47.47
2018-01-12T05:50:05.705Z,42.70
2018-01-12T05:52:33.363Z,44.67
2018-01-12T05:55:01.041Z,44.90
2018-01-12T05:57:29.240Z,47.80
2018-01-12T05:59:56.918Z,46.97
2018-01-12T06:05:30.508Z,52.55
2018-01-12T06:07:56.346Z,43.77
2018-01-12T06:10:24.008Z,43.10
2018-01-12T06:12:51.665Z,46.73
2018-01-12T06:15:19.357Z,38.03
2018-01-12T06:17:46.992Z,38.70
2018-01-12T06:20:14.649Z,47.43
2018-01-12T06:22:42.318Z,44.83
2018-01-12T06:25:09.976Z,46.80
2018-01-12T06:27:37.644Z,45.10
2018-01-12T06:30:05.404Z,44.73
2018-01-12T06:32:33.063Z,44.53
2018-01-12T06:35:00.738Z,50.97
2018-01-12T06:37:28.447Z,44.33
2018-01-12T06:39:56.132Z,44.47
2018-01-12T06:42:23.784Z,46.37
2018-01-12T06:44:51.496Z,47.67
2018-01-12T06:47:19.172Z,47.87
2018-01-12T06:49:46.790Z,39.27
2018-01-12T06:52:15.366Z,45.53
2018-01-12T06:54:43.051Z,35.57
2018-01-12T06:57:10.696Z,38.37
2018-01-12T06:59:38.417Z,46.27
2018-01-12T07:02:06.091Z,42.67
2018-01-12T07:04:33.727Z,35.40
2018-01-12T07:07:01.464Z,36.87
2018-01-12T07:09:29.126Z,40.70
2018-01-12T07:11:57.338Z,36.70
2018-01-12T07:14:25.080Z,41.83
2018-01-12T07:16:52.762Z,31.00
2018-01-12T07:19:20.424Z,47.80
2018-01-12T07:21:59.896Z,43.47
2018-01-12T07:24:27.559Z,39.47
2018-01-12T07:26:55.224Z,38.53
2018-01-12T07:29:22.944Z,42.00
2018-01-12T07:34:29.819Z,44.95
2018-01-12T07:36:57.458Z,43.27
2018-01-12T07:39:25.577Z,38.43
2018-01-12T07:41:53.297Z,43.37
2018-01-12T07:44:24.052Z,36.57
2018-01-12T07:46:51.720Z,36.93
2018-01-12T07:49:19.444Z,35.70
2018-01-12T07:51:47.098Z,35.07
2018-01-12T07:54:14.775Z,32.00
2018-01-12T07:56:42.510Z,31.90
2018-01-12T07:59:10.234Z,31.63
2018-01-12T08:01:43.521Z,30.93
2018-01-12T08:04:11.192Z,30.63
2018-01-12T08:06:38.865Z,32.97
2018-01-12T08:09:06.589Z,36.50
2018-01-12T08:11:34.264Z,29.07
2018-01-12T08:14:01.931Z,31.30
2018-01-12T08:16:29.652Z,30.43
2018-01-12T08:18:57.328Z,33.60
2018-01-12T08:21:24.965Z,33.43
2018-01-12T08:23:52.699Z,34.63
2018-01-12T08:26:20.398Z,34.13
2018-01-12T08:28:48.105Z,30.13
2018-01-12T08:31:15.827Z,36.20
2018-01-12T08:33:43.510Z,34.80
2018-01-12T08:36:11.174Z,41.30
2018-01-12T08:38:38.870Z,34.90
2018-01-12T08:41:06.563Z,27.90
2018-01-12T08:43:34.225Z,33.10
2018-01-12T08:46:01.981Z,31.70
2018-01-12T08:48:30.210Z,31.30
2018-01-12T08:50:57.857Z,32.07
2018-01-12T08:53:25.566Z,32.40
2018-01-12T08:58:32.420Z,30.80
2018-01-12T09:01:00.172Z,27.03
2018-01-12T09:03:27.903Z,25.50
2018-01-12T09:05:56.643Z,24.83
2018-01-12T09:08:24.322Z,32.03
2018-01-12T09:10:52.007Z,33.93
2018-01-12T09:16:06.332Z,32.00
2018-01-12T09:18:45.842Z,28.30
2018-01-12T09:21:23.399Z,21.63
2018-01-12T09:23:55.920Z,26.50
2018-01-12T09:26:23.639Z,24.23
2018-01-12T09:31:48.766Z,29.80
2018-01-12T09:34:21.007Z,29.77
2018-01-12T09:36:48.803Z,26.90
2018-01-12T09:39:28.227Z,27.20
2018-01-12T09:41:56.055Z,28.87
2018-01-12T09:44:23.717Z,29.00
2018-01-12T09:46:51.437Z,27.93
2018-01-12T09:49:24.039Z,33.13
2018-01-12T09:51:51.716Z,31.87
2018-01-12T09:54:19.380Z,29.27
2018-01-12T09:56:47.071Z,26.07
2018-01-12T09:59:14.757Z,32.40
2018-01-12T10:01:42.455Z,29.43
2018-01-12T10:04:10.156Z,27.20
2018-01-12T10:06:37.849Z,29.03
2018-01-12T10:09:05.518Z,29.80
2018-01-12T10:11:33.269Z,32.57
2018-01-12T10:14:00.933Z,28.20
2018-01-12T10:16:28.577Z,29.97
2018-01-12T10:18:56.295Z,27.47
2018-01-12T10:21:35.755Z,28.50
2018-01-12T10:24:03.490Z,26.47
2018-01-12T10:26:31.138Z,28.77
2018-01-12T10:31:51.182Z,29.05
2018-01-12T10:37:08.522Z,27.95
2018-01-12T10:39:36.209Z,27.90
2018-01-12T10:42:04.864Z,24.80
2018-01-12T10:44:32.505Z,26.47
2018-01-12T10:49:57.369Z,28.73
2018-01-12T10:55:09.590Z,24.65
2018-01-12T10:57:37.321Z,26.17
2018-01-12T11:00:04.973Z,20.43
2018-01-12T11:02:32.634Z,23.37
2018-01-12T11:05:04.011Z,23.67
2018-01-12T11:07:34.789Z,24.97
2018-01-12T11:10:02.393Z,26.03
2018-01-12T11:12:30.093Z,23.30
2018-01-12T11:14:57.758Z,26.83
2018-01-12T11:17:25.405Z,26.30
2018-01-12T11:19:53.535Z,24.73
2018-01-12T11:22:21.175Z,23.03
2018-01-12T11:24:48.827Z,23.90
2018-01-12T11:27:16.543Z,24.60
2018-01-12T11:29:44.222Z,22.07
2018-01-12T11:32:11.899Z,25.47
2018-01-12T11:34:39.607Z,25.43
2018-01-12T11:37:07.260Z,23.53
2018-01-12T11:39:34.895Z,22.00
2018-01-12T11:42:02.617Z,26.50
2018-01-12T11:44:30.286Z,24.87
2018-01-12T11:46:57.931Z,22.37
2018-01-12T11:49:26.103Z,25.10
2018-01-12T11:51:53.750Z,25.77
2018-01-12T11:54:21.384Z,25.07
2018-01-12T11:56:49.084Z,26.63
2018-01-12T11:59:16.719Z,25.43
2018-01-12T12:01:44.364Z,23.27
2018-01-12T12:04:12.054Z,25.87
2018-01-12T12:06:39.691Z,24.40
2018-01-12T12:09:07.349Z,26.00
2018-01-12T12:11:35.031Z,24.23
2018-01-12T12:14:02.678Z,26.53
2018-01-12T12:16:30.334Z,23.90
2018-01-12T12:21:39.073Z,21.55
2018-01-12T12:24:07.627Z,26.47
2018-01-12T12:26:35.295Z,22.20
2018-01-12T12:29:02.937Z,27.23
2018-01-12T12:31:30.657Z,28.37
2018-01-12T12:33:58.276Z,25.90
2018-01-12T12:39:04.670Z,26.33
2018-01-12T12:41:32.319Z,26.60
2018-01-12T12:43:59.974Z,27.60
2018-01-12T12:46:27.673Z,25.70
2018-01-12T12:48:55.299Z,22.63
2018-01-12T12:51:23.566Z,24.17
2018-01-12T12:56:29.445Z,24.87
2018-01-12T12:58:57.191Z,27.77
2018-01-12T13:01:24.807Z,27.00
2018-01-12T13:03:52.984Z,26.47
2018-01-12T13:06:20.702Z,29.10
2018-01-12T13:08:53.673Z,27.50
2018-01-12T13:11:16.898Z,24.97
2018-01-12T13:13:44.818Z,21.83
2018-01-12T13:16:12.486Z,21.77
2018-01-12T13:18:40.124Z,26.77
2018-01-12T13:21:07.850Z,24.33
2018-01-12T13:23:35.487Z,28.83
2018-01-12T13:26:03.590Z,28.70
2018-01-12T13:28:31.701Z,26.63
2018-01-12T13:30:59.386Z,27.27
2018-01-12T13:33:27.473Z,26.10
2018-01-12T13:35:55.198Z,23.30
2018-01-12T13:38:22.898Z,24.97
2018-01-12T13:40:50.551Z,28.57
2018-01-12T13:43:18.340Z,28.17
2018-01-12T13:45:46.021Z,26.93
2018-01-12T13:48:13.653Z,27.47
2018-01-12T13:50:41.373Z,25.30
2018-01-12T13:53:09.061Z,25.80
2018-01-12T13:55:36.737Z,26.20
2018-01-12T13:58:04.497Z,26.97
2018-01-12T14:03:08.946Z,26.40
2018-01-12T14:17:07.842Z,29.57
2018-01-12T14:19:36.055Z,32.20
2018-01-12T14:22:04.811Z,29.63
2018-01-12T14:24:38.010Z,30.67
2018-01-12T14:27:11.041Z,29.93
2018-01-12T14:29:39.491Z,27.57
2018-01-12T14:32:11.215Z,29.97
2018-01-12T14:37:17.862Z,27.13
2018-01-12T14:39:46.665Z,30.47
2018-01-12T14:42:20.083Z,26.43
2018-01-12T14:44:48.739Z,28.47
2018-01-12T14:47:16.949Z,27.60
2018-01-12T14:49:50.386Z,31.43
2018-01-12T14:52:22.193Z,25.80
2018-01-12T14:54:50.565Z,27.57
2018-01-12T14:57:23.937Z,29.70
2018-01-12T14:59:57.194Z,27.83
2018-01-12T15:02:26.004Z,30.83
2018-01-12T15:30:56.372Z,31.37
2018-01-12T15:33:25.768Z,35.37
2018-01-12T15:35:54.940Z,34.43
2018-01-12T15:38:23.554Z,38.77
2018-01-12T15:43:35.428Z,32.50
2018-01-12T15:46:04.410Z,35.67
2018-01-12T15:48:33.019Z,35.00
2018-01-12T15:51:01.474Z,36.53
2018-01-12T15:53:29.956Z,36.30
2018-01-12T15:55:59.325Z,35.87
2018-01-12T15:58:28.260Z,35.73
2018-01-12T16:00:56.553Z,36.47
2018-01-12T16:03:25.191Z,36.60
2018-01-12T16:08:31.302Z,38.63
2018-01-12T16:11:00.258Z,33.90
2018-01-12T16:13:33.853Z,33.73
2018-01-12T16:16:02.559Z,37.20
2018-01-12T16:18:32.414Z,35.27
2018-01-12T16:21:05.272Z,31.37
2018-01-12T16:23:34.112Z,34.70
2018-01-12T16:26:07.762Z,39.00
2018-01-12T16:28:36.190Z,37.17
2018-01-12T16:31:06.262Z,31.77
2018-01-12T16:33:34.645Z,35.90
2018-01-12T16:36:07.925Z,34.57
2018-01-12T16:41:20.360Z,32.37
2018-01-12T16:43:48.725Z,32.83
2018-01-12T16:46:17.357Z,35.00
2018-01-12T16:48:45.971Z,30.47
2018-01-12T16:51:20.237Z,30.30
2018-01-12T16:53:48.751Z,33.03
2018-01-12T16:56:17.133Z,31.20
2018-01-12T16:58:50.730Z,35.90
2018-01-12T17:01:20.229Z,33.10
2018-01-12T17:03:49.417Z,29.00
2018-01-12T17:17:48.745Z,35.00
2018-01-12T17:20:18.541Z,36.20
2018-01-12T17:22:47.755Z,32.23
2018-01-12T17:25:20.618Z,28.73
2018-01-12T17:27:49.526Z,29.93
2018-01-12T17:30:18.239Z,32.90
2018-01-12T17:32:52.257Z,32.10
2018-01-12T17:35:25.755Z,33.03
2018-01-12T17:40:29.025Z,34.35
2018-01-12T17:42:56.729Z,34.33
2018-01-12T17:45:24.431Z,29.53
2018-01-12T17:47:52.172Z,37.43
2018-01-12T17:50:19.842Z,35.80
2018-01-12T17:52:47.541Z,37.17
2018-01-12T17:55:15.249Z,38.20
2018-01-12T17:57:42.936Z,41.73
2018-01-12T18:00:10.622Z,36.37
2018-01-12T18:02:38.373Z,35.03
2018-01-12T18:05:06.052Z,32.90
2018-01-12T18:07:33.742Z,34.03
2018-01-12T18:10:01.491Z,37.97
2018-01-12T18:12:29.179Z,30.23
2018-01-12T18:14:56.873Z,33.70
2018-01-12T18:17:24.581Z,32.60
2018-01-12T18:19:52.296Z,35.87
2018-01-12T18:22:19.995Z,31.50
2018-01-12T18:24:48.164Z,38.07
2018-01-12T18:27:16.319Z,37.17
2018-01-12T18:29:44.421Z,38.90
2018-01-12T18:32:12.544Z,35.63
2018-01-12T18:34:40.487Z,33.03
2018-01-12T18:37:09.207Z,35.73
2018-01-12T18:39:38.736Z,33.37
2018-01-12T18:42:06.424Z,33.17
2018-01-12T18:44:34.106Z,32.57
2018-01-12T18:47:01.799Z,34.83
2018-01-12T18:49:29.979Z,34.73
2018-01-12T18:51:57.650Z,37.67
2018-01-12T18:54:25.365Z,38.33
2018-01-12T18:59:33.363Z,38.05
2018-01-12T19:02:01.951Z,38.00
2018-01-12T19:07:07.908Z,38.15
2018-01-12T19:09:36.438Z,34.30
2018-01-12T19:12:05.439Z,33.63
2018-01-12T19:14:38.013Z,36.97
2018-01-12T19:17:08.361Z,31.53
2018-01-12T19:24:57.435Z,37.38
2018-01-12T19:27:28.524Z,31.70
2018-01-12T19:29:56.242Z,39.37
2018-01-12T19:36:16.586Z,32.57
2018-01-12T19:41:30.624Z,61.15
2018-01-12T19:46:34.510Z,35.38
2018-01-12T19:49:02.220Z,30.50
2018-01-12T19:51:30.215Z,36.50
2018-01-12T19:53:58.258Z,27.83
2018-01-12T19:56:27.861Z,28.63
2018-01-12T19:58:55.541Z,36.17
2018-01-12T20:01:23.251Z,33.43
2018-01-12T20:06:41.046Z,32.90
2018-01-12T20:09:08.738Z,29.43
2018-01-12T20:11:36.386Z,29.93
2018-01-12T20:16:42.816Z,39.85
2018-01-12T20:19:10.441Z,31.83
2018-01-12T20:21:38.071Z,33.17
2018-01-12T20:24:05.756Z,30.50
2018-01-12T20:26:33.393Z,30.57
2018-01-12T20:29:01.008Z,30.53
2018-01-12T20:31:28.698Z,32.37
2018-01-12T20:33:56.345Z,30.53
2018-01-12T20:36:24.001Z,32.80
2018-01-12T20:38:51.662Z,28.03
2018-01-12T20:41:19.290Z,36.40
2018-01-12T20:43:46.923Z,34.27
2018-01-12T20:46:14.611Z,36.03
2018-01-12T20:48:42.243Z,35.33
2018-01-12T20:51:09.873Z,38.53
2018-01-12T20:53:37.563Z,32.90
2018-01-12T20:56:05.189Z,31.47
2018-01-12T20:58:32.810Z,36.83
2018-01-12T21:01:00.492Z,34.70
2018-01-12T21:03:28.113Z,35.10
2018-01-12T21:05:55.739Z,29.87
2018-01-12T21:08:23.430Z,35.43
2018-01-12T21:10:51.039Z,32.00
2018-01-12T21:13:18.666Z,34.67
2018-01-12T21:18:31.287Z,33.40
2018-01-12T21:20:58.966Z,31.83
2018-01-12T21:23:26.598Z,31.30
2018-01-12T21:25:54.217Z,32.13
2018-01-12T21:28:21.921Z,29.73
2018-01-12T21:30:49.563Z,32.67
2018-01-12T21:33:17.407Z,32.43
2018-01-12T21:35:45.022Z,36.43
2018-01-12T21:38:12.984Z,30.57
2018-01-12T21:40:40.788Z,33.00
2018-01-12T21:43:08.553Z,35.33
2018-01-12T21:45:36.187Z,35.53
2018-01-12T21:48:04.060Z,37.03
2018-01-12T21:50:31.747Z,39.23
2018-01-12T21:52:59.328Z,37.20
2018-01-12T21:55:26.948Z,36.50
2018-01-12T21:57:54.650Z,35.93
2018-01-12T22:00:22.293Z,36.10
2018-01-12T22:02:49.908Z,35.43
2018-01-12T22:05:17.600Z,31.00
2018-01-12T22:07:45.212Z,37.23
2018-01-12T22:12:51.685Z,37.90
2018-01-12T22:15:19.325Z,36.60
2018-01-12T22:17:46.995Z,35.57
2018-01-12T22:20:14.690Z,34.97
2018-01-12T22:22:42.335Z,35.83
2018-01-12T22:25:09.981Z,37.73
2018-01-12T22:27:37.665Z,36.60
2018-01-12T22:30:05.295Z,36.57
2018-01-12T22:32:32.918Z,38.97
2018-01-12T22:35:00.612Z,35.80
2018-01-12T22:37:28.244Z,37.17
2018-01-12T22:39:55.884Z,37.27
2018-01-12T22:42:23.571Z,36.53
2018-01-12T22:44:51.192Z,42.10
2018-01-12T22:47:18.816Z,41.00
2018-01-12T22:49:47.360Z,37.23
2018-01-12T22:52:14.982Z,37.47
2018-01-12T22:54:42.619Z,38.90
2018-01-12T22:57:10.296Z,57.43
2018-01-12T22:59:37.928Z,55.83
2018-01-12T23:02:05.556Z,30.23
2018-01-12T23:04:33.381Z,28.07
2018-01-12T23:07:01.013Z,31.77
2018-01-12T23:09:28.649Z,30.90
2018-01-12T23:11:56.363Z,30.27
2018-01-12T23:14:23.984Z,31.93
2018-01-12T23:16:51.615Z,31.90
2018-01-12T23:19:19.300Z,34.27
2018-01-12T23:21:46.919Z,34.07
2018-01-12T23:24:14.567Z,32.43
2018-01-12T23:26:42.270Z,30.97
2018-01-12T23:29:09.908Z,30.27
2018-01-12T23:31:37.540Z,32.13
2018-01-12T23:34:06.078Z,30.00
2018-01-12T23:39:13.646Z,31.92
2018-01-12T23:41:41.286Z,28.17
2018-01-12T23:44:08.908Z,27.67
2018-01-12T23:46:36.592Z,25.30
2018-01-12T23:49:04.229Z,28.57
2018-01-12T23:51:31.839Z,26.43
2018-01-12T23:53:59.527Z,24.33
2018-01-12T23:56:30.263Z,22.77
2018-01-12T23:58:57.899Z,24.73
